Time;durP1;ratioP1;P1;durP2;ratioP2;P2;SDS_P1;SDS_P2;PMS_P1;PMS_P2;Temp;Humidity;BMP_temperature;BMP_pressure;BME280_temperature;BME280_humidity;BME280_pressure;Samples;Min_cycle;Max_cycle;Signal;HPM_P1;HPM_P2
2023/01/31 00:02:45;;;;;;;24.58;3.75;;;3.90;99.90;;;;;;7339233;32;20632;-59
2023/01/31 00:06:50;;;;;;;25.00;4.43;;;4.10;99.90;;;;;;7344937;32;20367;-59
2023/01/31 00:10:52;;;;;;;22.08;3.67;;;4.20;99.90;;;;;;7343589;32;20213;-59
2023/01/31 00:14:53;;;;;;;23.00;3.30;;;4.10;99.90;;;;;;7338318;32;20175;-59
2023/01/31 00:18:55;;;;;;;25.05;3.80;;;4.20;99.90;;;;;;7343020;32;20216;-59
2023/01/31 00:22:57;;;;;;;21.10;3.78;;;4.10;99.90;;;;;;7342097;32;20123;-59
2023/01/31 00:26:59;;;;;;;26.92;3.40;;;4.10;99.90;;;;;;7346571;32;20107;-60
2023/01/31 00:31:01;;;;;;;22.30;3.78;;;4.10;99.90;;;;;;7338999;32;20112;-59
2023/01/31 00:35:03;;;;;;;24.42;3.72;;;4.10;99.90;;;;;;7337203;32;20161;-60
2023/01/31 00:39:06;;;;;;;13.52;2.87;;;4.20;99.90;;;;;;7323025;32;20151;-59
2023/01/31 00:43:08;;;;;;;23.67;3.58;;;4.30;99.90;;;;;;7339803;32;20177;-60
2023/01/31 00:47:09;;;;;;;24.98;3.47;;;4.30;99.90;;;;;;7331436;32;20118;-59
2023/01/31 00:51:11;;;;;;;20.33;3.22;;;4.30;99.90;;;;;;7336455;32;20493;-61
2023/01/31 00:55:13;;;;;;;26.60;2.67;;;4.20;99.90;;;;;;7347551;32;20494;-59
2023/01/31 00:59:15;;;;;;;19.08;2.87;;;4.20;99.90;;;;;;7335851;32;20393;-59
2023/01/31 01:03:17;;;;;;;19.10;3.72;;;4.20;99.90;;;;;;7335339;32;20346;-59
2023/01/31 01:07:19;;;;;;;19.02;2.97;;;4.20;99.90;;;;;;7333985;32;20464;-62
2023/01/31 01:11:24;;;;;;;20.33;3.60;;;4.20;99.90;;;;;;7326812;32;20330;-60
2023/01/31 01:15:26;;;;;;;17.48;3.12;;;4.20;99.90;;;;;;7333837;32;20289;-59
2023/01/31 01:19:27;;;;;;;20.30;3.12;;;4.20;99.90;;;;;;7333029;32;20168;-59
2023/01/31 01:23:29;;;;;;;24.12;4.32;;;4.00;99.90;;;;;;7338602;32;20142;-60
2023/01/31 01:27:31;;;;;;;16.33;2.97;;;4.00;99.90;;;;;;7332770;32;20598;-60
2023/01/31 01:31:33;;;;;;;21.42;3.12;;;4.00;99.90;;;;;;7333146;32;20139;-59
2023/01/31 01:35:35;;;;;;;26.05;3.20;;;4.00;99.90;;;;;;7328070;32;20214;-60
2023/01/31 01:39:38;;;;;;;16.05;2.62;;;4.00;99.90;;;;;;7334525;32;20099;-60
2023/01/31 01:43:43;;;;;;;24.30;3.97;;;4.10;99.90;;;;;;7339181;32;20261;-60
2023/01/31 01:47:58;;;;;;;16.25;3.45;;;4.00;99.90;;;;;;7342607;32;20107;-60
2023/01/31 01:52:04;;;;;;;14.93;2.60;;;4.00;99.90;;;;;;7341357;32;20252;-60
2023/01/31 01:56:14;;;;;;;19.13;3.03;;;4.00;99.90;;;;;;7344562;32;20150;-60
2023/01/31 02:00:22;;;;;;;21.17;3.37;;;4.00;99.90;;;;;;7344181;32;20189;-59
2023/01/31 02:04:29;;;;;;;19.45;2.62;;;4.00;99.90;;;;;;7345378;32;20282;-59
2023/01/31 02:08:36;;;;;;;13.10;2.92;;;3.90;99.90;;;;;;7331548;32;20158;-60
2023/01/31 02:12:38;;;;;;;13.57;2.92;;;3.90;99.90;;;;;;7346185;32;20281;-61
2023/01/31 02:16:40;;;;;;;17.33;3.62;;;3.90;99.90;;;;;;7338569;32;20099;-60
2023/01/31 02:20:57;;;;;;;17.25;3.08;;;3.90;99.90;;;;;;7337770;32;20120;-59
2023/01/31 02:25:19;;;;;;;20.80;2.80;;;3.80;99.90;;;;;;7338721;32;20547;-60
2023/01/31 02:29:46;;;;;;;21.55;3.58;;;3.80;99.90;;;;;;7347629;32;20231;-59
2023/01/31 02:34:20;;;;;;;21.05;3.55;;;3.70;99.90;;;;;;7343374;32;20183;-62
2023/01/31 02:38:48;;;;;;;15.57;3.33;;;3.70;99.90;;;;;;7344929;32;20200;-59
2023/01/31 02:43:05;;;;;;;17.30;2.92;;;3.80;99.90;;;;;;7320304;32;20837;-60
2023/01/31 02:47:26;;;;;;;15.40;3.00;;;3.80;99.90;;;;;;7340377;32;20092;-59
2023/01/31 02:51:40;;;;;;;26.23;3.50;;;3.80;99.90;;;;;;7344338;32;20329;-61
2023/01/31 02:56:18;;;;;;;19.30;3.00;;;3.90;99.90;;;;;;7344739;32;20103;-59
2023/01/31 03:00:21;;;;;;;;;;;4.00;99.90;;;;;;7341303;32;20472;-61
2023/01/31 03:04:22;;;;;;;17.60;2.85;;;4.00;99.90;;;;;;7342326;32;20006;-59
2023/01/31 03:08:24;;;;;;;19.15;4.28;;;4.00;99.90;;;;;;7344513;32;20119;-59
2023/01/31 03:12:41;;;;;;;23.48;3.22;;;4.00;99.90;;;;;;7337675;32;20340;-60
2023/01/31 03:17:31;;;;;;;12.60;3.45;;;4.00;99.90;;;;;;7342412;32;20267;-59
2023/01/31 03:21:38;;;;;;;17.50;3.75;;;3.90;99.90;;;;;;7333915;32;20236;-59
2023/01/31 03:25:40;;;;;;;15.85;3.75;;;3.80;99.90;;;;;;7321964;32;20103;-60
2023/01/31 03:29:43;;;;;;;19.30;3.70;;;3.60;99.90;;;;;;7336635;32;20126;-60
2023/01/31 03:33:50;;;;;;;19.83;4.37;;;3.70;99.90;;;;;;7342489;32;20171;-60
2023/01/31 03:38:19;;;;;;;27.27;4.00;;;3.50;99.90;;;;;;7340910;32;20127;-60
2023/01/31 03:42:21;;;;;;;19.67;3.58;;;3.40;99.90;;;;;;7334222;32;20119;-59
2023/01/31 03:46:41;;;;;;;22.67;4.18;;;3.30;99.90;;;;;;7343102;32;20335;-60
2023/01/31 03:50:50;;;;;;;15.50;3.90;;;3.20;99.90;;;;;;7344336;32;20131;-59
2023/01/31 03:54:58;;;;;;;22.37;3.70;;;3.20;99.90;;;;;;7335688;32;20625;-59
2023/01/31 03:59:07;;;;;;;26.52;3.97;;;3.30;99.90;;;;;;7328319;32;20160;-60
2023/01/31 04:03:19;;;;;;;17.25;3.85;;;3.20;99.90;;;;;;7337642;32;20103;-60
2023/01/31 04:07:22;;;;;;;15.13;3.42;;;3.20;99.90;;;;;;7332848;32;20246;-59
2023/01/31 04:11:25;;;;;;;22.77;4.32;;;3.20;99.90;;;;;;7329055;32;20510;-59
2023/01/31 04:15:27;;;;;;;15.30;4.10;;;3.20;99.90;;;;;;7332529;32;20497;-60
2023/01/31 04:19:29;;;;;;;13.77;3.80;;;3.10;99.90;;;;;;7323771;32;20157;-60
2023/01/31 04:23:31;;;;;;;29.73;5.05;;;3.10;99.90;;;;;;7338487;32;20107;-60
2023/01/31 04:27:32;;;;;;;19.37;4.20;;;3.20;99.90;;;;;;7328321;32;20173;-59
2023/01/31 04:31:34;;;;;;;26.65;4.45;;;3.20;99.90;;;;;;7333873;32;20127;-60
2023/01/31 04:35:40;;;;;;;24.20;4.68;;;3.30;99.90;;;;;;7337134;32;20597;-59
2023/01/31 04:39:42;;;;;;;27.75;5.70;;;3.40;99.90;;;;;;7328545;32;20111;-59
2023/01/31 04:43:44;;;;;;;15.52;4.70;;;3.40;99.90;;;;;;7341564;32;20170;-59
2023/01/31 04:47:45;;;;;;;29.10;5.50;;;3.40;99.90;;;;;;7339574;32;20179;-59
2023/01/31 04:51:47;;;;;;;22.70;5.25;;;3.50;99.90;;;;;;7339038;32;20470;-59
2023/01/31 04:55:52;;;;;;;23.60;6.32;;;3.60;99.90;;;;;;7340745;32;20494;-60
2023/01/31 04:59:54;;;;;;;22.13;6.43;;;3.50;99.90;;;;;;7333724;32;20111;-59
2023/01/31 05:03:55;;;;;;;27.30;6.82;;;3.60;99.90;;;;;;7337708;32;20504;-60
2023/01/31 05:07:57;;;;;;;27.02;7.47;;;3.60;99.90;;;;;;7320157;32;20647;-61
2023/01/31 05:11:59;;;;;;;24.77;6.95;;;3.70;99.90;;;;;;7340337;32;20198;-60
2023/01/31 05:16:01;;;;;;;20.50;7.03;;;3.80;99.90;;;;;;7326404;32;20187;-59
2023/01/31 05:20:04;;;;;;;19.70;6.80;;;3.80;99.90;;;;;;7323645;32;20461;-59
2023/01/31 05:24:07;;;;;;;30.08;7.12;;;3.80;99.90;;;;;;7321252;32;20435;-59
2023/01/31 05:28:09;;;;;;;23.65;7.18;;;3.80;99.90;;;;;;7323663;32;20111;-60
2023/01/31 05:32:12;;;;;;;23.27;7.40;;;3.80;99.90;;;;;;7317998;32;20257;-59
2023/01/31 05:36:13;;;;;;;33.17;7.53;;;3.70;99.90;;;;;;7328074;32;20258;-59
2023/01/31 05:40:16;;;;;;;30.77;8.65;;;3.80;99.90;;;;;;7328649;32;20250;-59
2023/01/31 05:44:18;;;;;;;27.45;8.05;;;3.90;99.90;;;;;;7344680;32;20125;-62
2023/01/31 05:48:20;;;;;;;28.77;7.55;;;3.90;99.90;;;;;;7331722;32;20183;-59
2023/01/31 05:52:22;;;;;;;26.70;7.80;;;3.80;99.90;;;;;;7333860;32;20473;-61
2023/01/31 05:56:24;;;;;;;24.40;7.87;;;3.90;99.90;;;;;;7331861;32;20104;-59
2023/01/31 06:00:26;;;;;;;23.67;7.70;;;3.80;99.90;;;;;;7334232;32;20266;-59
2023/01/31 06:04:27;;;;;;;26.83;8.52;;;3.80;99.90;;;;;;7338251;32;20132;-59
2023/01/31 06:08:29;;;;;;;24.23;8.52;;;3.80;99.90;;;;;;7333225;32;20164;-59
2023/01/31 06:12:31;;;;;;;25.48;6.95;;;3.90;99.90;;;;;;7344171;32;20460;-58
2023/01/31 06:16:33;;;;;;;27.52;7.70;;;3.90;99.90;;;;;;7338079;32;20127;-59
2023/01/31 06:20:37;;;;;;;24.37;7.85;;;3.90;99.90;;;;;;7338511;32;20099;-59
2023/01/31 06:24:39;;;;;;;27.58;8.68;;;3.90;99.90;;;;;;7341657;32;20179;-59
2023/01/31 06:28:41;;;;;;;29.90;9.40;;;4.00;99.90;;;;;;7339050;32;20405;-59
2023/01/31 06:32:42;;;;;;;32.90;8.90;;;4.10;99.90;;;;;;7330430;32;20582;-60
2023/01/31 06:36:44;;;;;;;23.70;8.43;;;4.00;99.90;;;;;;7344337;32;20236;-60
2023/01/31 06:40:46;;;;;;;31.77;9.25;;;4.10;99.90;;;;;;7349722;32;20284;-60
2023/01/31 06:44:47;;;;;;;28.48;9.00;;;4.20;99.90;;;;;;7348034;32;20139;-61
2023/01/31 06:48:49;;;;;;;31.15;8.68;;;4.20;99.90;;;;;;7342550;32;20112;-60
2023/01/31 06:52:51;;;;;;;26.77;7.65;;;4.20;99.90;;;;;;7341968;32;20244;-60
2023/01/31 06:56:53;;;;;;;27.52;8.13;;;4.20;99.90;;;;;;7336509;32;20123;-60
2023/01/31 07:00:55;;;;;;;25.62;7.95;;;4.30;99.90;;;;;;7331315;32;20132;-59
2023/01/31 07:04:57;;;;;;;25.20;7.05;;;4.30;99.90;;;;;;7336318;32;20152;-61
2023/01/31 07:08:59;;;;;;;27.13;8.10;;;4.30;99.90;;;;;;7338808;32;20896;-60
2023/01/31 07:13:01;;;;;;;27.73;7.68;;;4.30;99.90;;;;;;7336953;32;20111;-60
2023/01/31 07:17:02;;;;;;;27.67;7.68;;;4.30;99.90;;;;;;7341898;32;20759;-60
2023/01/31 07:21:05;;;;;;;20.73;6.43;;;4.30;99.90;;;;;;7327380;32;20225;-60
2023/01/31 07:25:07;;;;;;;30.02;7.75;;;4.40;99.90;;;;;;7333806;32;20272;-60
2023/01/31 07:29:10;;;;;;;19.62;6.80;;;4.30;99.90;;;;;;7336086;32;20238;-60
2023/01/31 07:33:12;;;;;;;22.60;6.87;;;4.30;99.90;;;;;;7346769;32;20137;-60
2023/01/31 07:37:14;;;;;;;22.55;5.78;;;4.30;99.90;;;;;;7333331;32;20210;-61
2023/01/31 07:41:15;;;;;;;21.42;5.80;;;4.40;99.90;;;;;;7340815;32;20253;-62
2023/01/31 07:45:17;;;;;;;20.23;6.03;;;4.40;99.90;;;;;;7341754;32;20552;-61
2023/01/31 07:49:24;;;;;;;23.42;5.57;;;4.50;99.90;;;;;;7337934;32;20281;-61
2023/01/31 07:53:28;;;;;;;20.40;5.30;;;4.50;99.90;;;;;;7338921;32;20122;-61
2023/01/31 07:57:31;;;;;;;15.88;4.62;;;4.60;99.90;;;;;;7340745;32;20192;-61
2023/01/31 08:05:54;;;;;;;15.63;4.55;;;4.60;99.90;;;;;;7335765;32;20215;-61
2023/01/31 08:09:55;;;;;;;20.15;4.40;;;4.70;99.90;;;;;;7345159;32;20127;-61
2023/01/31 08:13:57;;;;;;;17.05;3.70;;;4.80;99.90;;;;;;7327464;32;20281;-61
2023/01/31 08:17:59;;;;;;;18.77;4.18;;;4.80;99.90;;;;;;7333335;32;20130;-62
2023/01/31 08:22:03;;;;;;;17.48;3.60;;;4.80;99.90;;;;;;7317407;32;20104;-62
2023/01/31 08:26:09;;;;;;;15.63;4.15;;;4.90;99.90;;;;;;7337822;32;20716;-61
2023/01/31 08:30:11;;;;;;;18.40;4.15;;;4.90;99.90;;;;;;7341005;32;20179;-61
2023/01/31 08:34:13;;;;;;;18.05;4.37;;;4.90;99.90;;;;;;7326760;32;20107;-61
2023/01/31 08:38:14;;;;;;;20.98;4.22;;;4.90;99.90;;;;;;7324623;32;20123;-61
2023/01/31 08:42:17;;;;;;;18.00;4.03;;;4.90;99.90;;;;;;7327105;32;20222;-62
2023/01/31 08:46:19;;;;;;;19.42;3.97;;;4.80;99.90;;;;;;7332868;32;20103;-61
2023/01/31 08:50:22;;;;;;;20.37;4.43;;;4.80;99.90;;;;;;7338565;32;20171;-64
2023/01/31 08:54:28;;;;;;;15.32;4.00;;;4.80;99.90;;;;;;7339073;32;20213;-64
2023/01/31 08:58:32;;;;;;;16.67;4.03;;;4.80;99.90;;;;;;7338604;32;20100;-65
2023/01/31 09:02:34;;;;;;;20.20;4.25;;;4.90;99.90;;;;;;7338772;32;20108;-65
2023/01/31 09:06:36;;;;;;;18.80;4.47;;;4.80;99.90;;;;;;7338106;32;20226;-67
2023/01/31 09:10:38;;;;;;;17.15;4.22;;;4.90;99.90;;;;;;7339302;32;20115;-65
2023/01/31 09:14:40;;;;;;;13.23;3.95;;;4.80;99.90;;;;;;7340773;32;20088;-65
2023/01/31 09:18:42;;;;;;;15.63;3.00;;;4.90;99.90;;;;;;7338636;32;20125;-65
2023/01/31 09:22:44;;;;;;;13.77;3.33;;;4.90;99.90;;;;;;7333519;32;20182;-65
2023/01/31 09:26:46;;;;;;;21.65;3.70;;;4.90;99.90;;;;;;7336086;32;20207;-66
2023/01/31 09:30:48;;;;;;;18.85;4.00;;;4.90;99.90;;;;;;7335934;32;20194;-65
2023/01/31 09:34:50;;;;;;;11.50;3.20;;;5.00;99.90;;;;;;7337616;32;20122;-65
2023/01/31 09:38:55;;;;;;;18.42;3.97;;;5.00;99.90;;;;;;7339040;32;20602;-64
2023/01/31 09:43:01;;;;;;;21.95;3.85;;;5.10;99.90;;;;;;7338239;32;20202;-65
2023/01/31 09:47:08;;;;;;;13.98;3.55;;;5.20;99.90;;;;;;7342390;32;20134;-65
2023/01/31 09:51:13;;;;;;;20.20;3.45;;;5.30;99.90;;;;;;7340463;32;20212;-64
2023/01/31 09:55:57;;;;;;;18.87;3.37;;;5.40;99.90;;;;;;7334680;32;20738;-61
2023/01/31 10:00:24;;;;;;;17.30;3.33;;;5.50;99.90;;;;;;7339076;32;20794;-63
2023/01/31 10:05:02;;;;;;;16.23;3.22;;;5.60;99.90;;;;;;7345430;32;20164;-62
2023/01/31 10:09:26;;;;;;;14.30;3.70;;;5.50;99.90;;;;;;7348805;32;20103;-63
2023/01/31 10:13:38;;;;;;;13.60;3.47;;;5.60;99.90;;;;;;7338188;32;20225;-64
2023/01/31 10:17:48;;;;;;;16.80;3.45;;;5.60;99.90;;;;;;7343960;32;20096;-62
2023/01/31 10:21:59;;;;;;;17.62;3.67;;;5.40;99.90;;;;;;7328999;32;20163;-63
2023/01/31 10:26:05;;;;;;;17.02;3.85;;;5.40;99.90;;;;;;7340689;32;20103;-62
2023/01/31 10:30:20;;;;;;;17.73;4.00;;;5.30;99.90;;;;;;7343032;32;20187;-64
2023/01/31 10:34:41;;;;;;;19.55;4.32;;;5.50;99.90;;;;;;7339963;32;20219;-66
2023/01/31 10:38:56;;;;;;;18.30;4.43;;;5.50;99.90;;;;;;7348762;32;20186;-65
2023/01/31 10:43:15;;;;;;;23.45;4.50;;;5.60;99.90;;;;;;7348993;32;20131;-67
2023/01/31 10:47:18;;;;;;;13.32;3.53;;;5.60;99.90;;;;;;7346408;32;20107;-65
2023/01/31 10:51:37;;;;;;;15.98;3.70;;;5.70;99.90;;;;;;7346779;32;20185;-65
2023/01/31 10:55:55;;;;;;;17.05;4.12;;;5.90;99.90;;;;;;7341630;32;20244;-65
2023/01/31 10:59:58;;;;;;;22.60;4.15;;;5.90;99.90;;;;;;7344798;32;20806;-64
2023/01/31 11:04:20;;;;;;;14.43;4.47;;;6.00;99.90;;;;;;7342738;32;20238;-64
2023/01/31 11:08:32;;;;;;;17.98;4.55;;;6.00;99.90;;;;;;7343716;32;20156;-64
2023/01/31 11:12:50;;;;;;;18.30;4.18;;;6.00;99.90;;;;;;7342687;32;20194;-65
2023/01/31 11:17:01;;;;;;;20.90;5.20;;;6.00;99.90;;;;;;7347074;32;20768;-65
2023/01/31 11:21:04;;;;;;;22.85;4.70;;;5.90;99.90;;;;;;7346660;32;20160;-64
2023/01/31 11:25:15;;;;;;;19.40;4.80;;;5.90;99.90;;;;;;7340650;32;20202;-63
2023/01/31 11:29:24;;;;;;;16.73;5.05;;;5.90;99.90;;;;;;7344558;32;20768;-63
2023/01/31 11:33:44;;;;;;;20.40;4.70;;;5.90;99.90;;;;;;7341789;32;20119;-63
2023/01/31 11:37:49;;;;;;;18.55;4.97;;;5.90;99.90;;;;;;7346790;32;20111;-62
2023/01/31 11:41:54;;;;;;;21.45;5.00;;;5.90;99.90;;;;;;7334735;32;20233;-62
2023/01/31 11:45:59;;;;;;;26.90;6.07;;;6.00;99.90;;;;;;7342130;32;20406;-63
2023/01/31 11:50:02;;;;;;;15.35;5.45;;;6.10;99.90;;;;;;7334503;32;20134;-65
2023/01/31 11:54:04;;;;;;;14.73;4.47;;;6.10;99.90;;;;;;7325296;32;20773;-63
2023/01/31 11:58:15;;;;;;;17.70;4.72;;;6.10;99.90;;;;;;7336583;32;20175;-61
2023/01/31 12:02:29;;;;;;;23.27;4.97;;;6.20;99.90;;;;;;7342338;32;20306;-62
2023/01/31 12:06:34;;;;;;;17.00;4.97;;;6.30;99.90;;;;;;7335071;32;20154;-61
2023/01/31 12:10:44;;;;;;;20.40;4.78;;;6.30;99.90;;;;;;7339117;32;20112;-61
2023/01/31 12:14:47;;;;;;;12.85;4.30;;;6.30;99.90;;;;;;7339884;32;20454;-62
2023/01/31 12:19:07;;;;;;;13.40;4.50;;;6.30;99.90;;;;;;7339866;32;20622;-63
2023/01/31 12:23:19;;;;;;;16.58;5.10;;;6.30;99.90;;;;;;7336940;32;20121;-62
2023/01/31 12:27:42;;;;;;;15.35;4.80;;;6.40;99.90;;;;;;7333134;32;20108;-62
2023/01/31 12:32:04;;;;;;;13.20;4.50;;;6.40;99.90;;;;;;7330756;32;20096;-62
2023/01/31 12:36:27;;;;;;;17.50;4.90;;;6.40;99.90;;;;;;7331786;32;20439;-62
2023/01/31 12:40:35;;;;;;;18.77;5.30;;;6.30;99.90;;;;;;7341868;32;20278;-63
2023/01/31 12:44:49;;;;;;;18.55;5.43;;;6.30;99.90;;;;;;7345655;32;20172;-61
2023/01/31 12:49:17;;;;;;;14.80;4.57;;;6.30;99.90;;;;;;7326667;32;20163;-62
2023/01/31 12:53:22;;;;;;;11.02;5.00;;;6.40;99.90;;;;;;7338867;32;20190;-63
2023/01/31 12:57:29;;;;;;;17.27;5.87;;;6.40;99.90;;;;;;7336790;32;20134;-63
2023/01/31 13:01:42;;;;;;;14.13;5.25;;;6.30;99.90;;;;;;7343194;32;20152;-63
2023/01/31 13:05:55;;;;;;;16.70;5.50;;;6.30;99.90;;;;;;7334403;32;20122;-61
2023/01/31 13:09:59;;;;;;;14.07;4.50;;;6.50;99.90;;;;;;7343156;32;20115;-64
2023/01/31 13:14:09;;;;;;;16.10;5.40;;;6.70;99.90;;;;;;7343158;32;20434;-64
2023/01/31 13:18:13;;;;;;;16.65;5.55;;;6.70;99.90;;;;;;7333288;32;20217;-64
2023/01/31 13:22:23;;;;;;;17.55;6.25;;;6.90;99.90;;;;;;7335805;32;20126;-65
2023/01/31 13:26:32;;;;;;;17.35;6.18;;;6.80;99.90;;;;;;7338303;32;20125;-66
2023/01/31 13:30:57;;;;;;;20.23;7.20;;;6.60;99.90;;;;;;7338243;32;20524;-63
2023/01/31 13:35:14;;;;;;;21.05;7.70;;;6.50;99.90;;;;;;7339666;32;20104;-64
2023/01/31 13:39:31;;;;;;;17.53;7.53;;;6.40;99.90;;;;;;7343961;32;20127;-65
2023/01/31 13:43:33;;;;;;;19.50;7.60;;;6.30;99.90;;;;;;7336764;32;20237;-64
2023/01/31 13:47:48;;;;;;;19.73;8.38;;;6.30;99.90;;;;;;7338758;32;20123;-64
2023/01/31 13:52:00;;;;;;;21.25;8.15;;;6.30;99.90;;;;;;7345999;32;20107;-64
2023/01/31 13:56:07;;;;;;;24.12;8.60;;;6.30;99.90;;;;;;7346422;32;20178;-65
2023/01/31 14:00:31;;;;;;;17.02;7.78;;;6.20;99.90;;;;;;7345088;32;20110;-64
2023/01/31 14:04:35;;;;;;;19.00;7.93;;;6.10;99.90;;;;;;7345763;32;20838;-62
2023/01/31 14:08:49;;;;;;;18.33;7.87;;;6.20;99.90;;;;;;7338055;32;20129;-65
2023/01/31 14:13:31;;;;;;;17.92;8.40;;;6.20;99.90;;;;;;7339522;32;20211;-63
2023/01/31 14:17:33;;;;;;;16.60;7.37;;;6.20;99.90;;;;;;7329791;32;20122;-64
2023/01/31 14:21:34;;;;;;;16.23;8.23;;;6.10;99.90;;;;;;7341390;32;20714;-63
2023/01/31 14:25:40;;;;;;;24.05;8.48;;;6.10;99.90;;;;;;7341067;32;20107;-62
2023/01/31 14:29:43;;;;;;;18.85;8.95;;;6.10;99.90;;;;;;7333710;32;20326;-63
2023/01/31 14:33:47;;;;;;;15.15;8.38;;;6.10;99.90;;;;;;7339432;32;20125;-62
2023/01/31 14:37:49;;;;;;;22.62;9.23;;;6.20;99.90;;;;;;7349050;32;20130;-64
2023/01/31 14:42:11;;;;;;;17.77;8.65;;;6.20;99.90;;;;;;7353285;32;20408;-64
2023/01/31 14:46:39;;;;;;;22.15;9.57;;;6.20;99.90;;;;;;7333906;32;20742;-63
2023/01/31 14:51:18;;;;;;;14.60;8.73;;;6.10;99.90;;;;;;7327492;32;20453;-64
2023/01/31 14:56:08;;;;;;;15.10;8.10;;;6.10;99.90;;;;;;7345466;32;20694;-63
2023/01/31 15:00:12;;;;;;;13.60;7.68;;;6.20;99.90;;;;;;7323648;32;20384;-64
2023/01/31 15:04:21;;;;;;;14.35;9.10;;;6.20;99.90;;;;;;7341226;32;20158;-62
2023/01/31 15:08:23;;;;;;;15.43;8.88;;;6.20;99.90;;;;;;7338613;32;20286;-63
2023/01/31 15:12:59;;;;;;;13.48;8.77;;;6.30;99.90;;;;;;7351130;32;20529;-64
2023/01/31 15:17:14;;;;;;;13.65;7.82;;;6.30;99.90;;;;;;7331150;32;20115;-64
2023/01/31 15:21:54;;;;;;;15.82;9.35;;;6.30;99.90;;;;;;7346381;32;20137;-63
2023/01/31 15:25:58;;;;;;;12.48;7.68;;;6.30;99.90;;;;;;7344595;32;20174;-63
2023/01/31 15:30:15;;;;;;;15.60;9.02;;;6.30;99.90;;;;;;7330094;32;20119;-63
2023/01/31 15:34:32;;;;;;;12.52;7.37;;;6.30;99.90;;;;;;7344611;32;20214;-63
2023/01/31 15:38:43;;;;;;;14.47;9.27;;;6.30;99.90;;;;;;7332097;32;20107;-63
2023/01/31 15:42:45;;;;;;;16.17;10.05;;;6.30;99.90;;;;;;7339496;32;20486;-61
2023/01/31 15:46:52;;;;;;;15.98;9.48;;;6.40;99.90;;;;;;7339741;32;20111;-62
2023/01/31 15:50:57;;;;;;;14.40;9.77;;;6.40;99.90;;;;;;7329453;32;20142;-62
2023/01/31 15:55:03;;;;;;;16.48;10.25;;;6.40;99.90;;;;;;7330292;32;20157;-63
2023/01/31 15:59:11;;;;;;;21.67;11.05;;;6.50;99.90;;;;;;7340408;32;20196;-61
2023/01/31 16:03:21;;;;;;;14.98;10.07;;;6.50;99.90;;;;;;7338921;32;20229;-62
2023/01/31 16:07:27;;;;;;;18.48;10.98;;;6.50;99.90;;;;;;7337144;32;20209;-62
2023/01/31 16:11:32;;;;;;;14.30;10.95;;;6.50;99.90;;;;;;7335605;32;20241;-62
2023/01/31 16:15:34;;;;;;;18.65;12.35;;;6.50;99.90;;;;;;7342956;32;20119;-62
2023/01/31 16:19:36;;;;;;;23.02;12.20;;;6.50;99.90;;;;;;7347192;32;20202;-62
2023/01/31 16:23:38;;;;;;;16.02;11.32;;;6.60;99.90;;;;;;7345924;32;20303;-62
2023/01/31 16:27:44;;;;;;;19.87;12.23;;;6.60;99.90;;;;;;7347810;32;20104;-63
2023/01/31 16:31:51;;;;;;;19.87;12.15;;;6.60;99.90;;;;;;7337419;32;20149;-62
2023/01/31 16:36:09;;;;;;;18.80;11.93;;;6.60;99.90;;;;;;7345471;32;20268;-63
2023/01/31 16:40:16;;;;;;;26.50;12.40;;;6.60;99.90;;;;;;7343257;32;20238;-61
2023/01/31 16:44:21;;;;;;;24.12;12.75;;;6.70;99.90;;;;;;7338771;32;20249;-61
2023/01/31 16:48:29;;;;;;;16.83;11.00;;;6.70;99.90;;;;;;7336238;32;20130;-61
2023/01/31 16:52:30;;;;;;;18.15;10.73;;;6.80;99.90;;;;;;7338344;32;20226;-62
2023/01/31 16:56:32;;;;;;;16.25;11.43;;;6.80;99.90;;;;;;7339104;32;20255;-61
2023/01/31 17:00:34;;;;;;;17.65;11.10;;;6.80;99.90;;;;;;7336087;32;20107;-63
2023/01/31 17:04:40;;;;;;;18.35;11.70;;;6.80;99.90;;;;;;7337936;32;20830;-60
2023/01/31 17:08:43;;;;;;;20.83;12.23;;;6.70;99.90;;;;;;7337343;32;20530;-60
2023/01/31 17:12:44;;;;;;;17.35;12.20;;;6.60;99.90;;;;;;7340334;32;20188;-60
2023/01/31 17:16:50;;;;;;;19.08;11.12;;;6.70;99.90;;;;;;7337489;32;20232;-60
2023/01/31 17:20:52;;;;;;;21.15;12.60;;;6.70;99.90;;;;;;7340398;32;20103;-60
2023/01/31 17:24:53;;;;;;;19.30;12.90;;;6.70;99.90;;;;;;7335062;32;20108;-60
2023/01/31 17:28:55;;;;;;;18.17;12.90;;;6.70;99.90;;;;;;7340945;32;20126;-61
2023/01/31 17:33:03;;;;;;;21.73;12.98;;;6.70;99.90;;;;;;7341906;32;20119;-61
2023/01/31 17:37:05;;;;;;;21.12;12.82;;;6.70;99.90;;;;;;7341004;32;20139;-60
2023/01/31 17:41:16;;;;;;;21.87;13.35;;;6.80;99.90;;;;;;7336320;32;20190;-61
2023/01/31 17:45:18;;;;;;;20.70;13.50;;;6.70;99.90;;;;;;7333116;32;20249;-61
2023/01/31 17:49:21;;;;;;;22.85;13.90;;;6.70;99.90;;;;;;7340945;32;20602;-61
2023/01/31 17:53:22;;;;;;;24.92;13.93;;;6.70;99.90;;;;;;7336651;32;20104;-63
2023/01/31 17:57:24;;;;;;;24.70;13.45;;;6.80;99.90;;;;;;7331881;32;20103;-62
2023/01/31 18:01:26;;;;;;;22.60;13.18;;;6.80;99.90;;;;;;7337295;32;20258;-65
2023/01/31 18:05:27;;;;;;;23.85;13.07;;;6.80;99.90;;;;;;7329277;32;20143;-61
2023/01/31 18:09:39;;;;;;;23.92;13.10;;;6.70;99.90;;;;;;7336765;32;20220;-62
2023/01/31 18:13:42;;;;;;;20.88;11.68;;;6.70;99.90;;;;;;7334956;32;20138;-60
2023/01/31 18:17:43;;;;;;;19.65;11.77;;;6.70;99.90;;;;;;7328414;32;20178;-62
2023/01/31 18:21:45;;;;;;;20.65;11.48;;;6.70;99.90;;;;;;7331009;32;20226;-61
2023/01/31 18:25:55;;;;;;;20.23;12.32;;;6.70;99.90;;;;;;7338983;32;20151;-64
2023/01/31 18:29:56;;;;;;;21.37;11.90;;;6.70;99.90;;;;;;7345582;32;20178;-62
2023/01/31 18:33:58;;;;;;;20.25;11.85;;;6.60;99.90;;;;;;7347418;32;20297;-62
2023/01/31 18:38:00;;;;;;;25.80;11.40;;;6.50;99.90;;;;;;7343418;32;20582;-62
2023/01/31 18:42:02;;;;;;;24.77;11.98;;;6.50;99.90;;;;;;7348986;32;21668;-62
2023/01/31 18:46:05;;;;;;;19.08;10.00;;;6.30;99.90;;;;;;7341538;32;20107;-62
2023/01/31 18:50:07;;;;;;;17.15;10.05;;;6.20;99.90;;;;;;7340360;32;20225;-62
2023/01/31 18:54:09;;;;;;;18.67;10.35;;;6.10;99.90;;;;;;7335650;32;20141;-62
2023/01/31 18:58:11;;;;;;;23.02;11.90;;;6.00;99.90;;;;;;7339659;32;20190;-62
2023/01/31 19:02:12;;;;;;;19.85;12.37;;;6.10;99.90;;;;;;7339374;32;20259;-62
2023/01/31 19:06:29;;;;;;;27.50;14.63;;;6.10;99.90;;;;;;7340578;32;20196;-61
2023/01/31 19:10:31;;;;;;;24.33;15.50;;;6.10;99.90;;;;;;7342939;32;20134;-61
2023/01/31 19:14:33;;;;;;;34.00;16.65;;;6.20;99.90;;;;;;7344527;32;20163;-61
2023/01/31 19:18:35;;;;;;;25.23;16.85;;;6.30;99.90;;;;;;7343281;32;20247;-60
2023/01/31 19:22:37;;;;;;;30.10;17.20;;;6.40;99.90;;;;;;7340454;32;20107;-63
2023/01/31 19:26:39;;;;;;;26.60;15.98;;;6.40;99.90;;;;;;7344376;32;20637;-63
2023/01/31 19:30:41;;;;;;;23.75;15.43;;;6.40;99.90;;;;;;7341485;32;20132;-63
2023/01/31 19:34:43;;;;;;;29.83;15.95;;;6.50;99.90;;;;;;7343095;32;20336;-62
2023/01/31 19:38:44;;;;;;;24.23;16.05;;;6.60;99.90;;;;;;7342237;32;20305;-62
2023/01/31 19:42:46;;;;;;;29.12;14.63;;;6.60;99.90;;;;;;7343918;32;20129;-62
2023/01/31 19:46:50;;;;;;;22.92;12.05;;;6.60;99.90;;;;;;7346133;32;20275;-64
2023/01/31 19:50:52;;;;;;;24.58;12.45;;;6.60;99.90;;;;;;7342095;32;20512;-62
2023/01/31 19:54:54;;;;;;;24.15;12.75;;;6.60;99.90;;;;;;7339112;32;20190;-62
2023/01/31 19:58:56;;;;;;;26.33;12.40;;;6.50;99.90;;;;;;7342529;32;20583;-62
2023/01/31 20:02:58;;;;;;;23.80;11.65;;;6.60;99.90;;;;;;7346171;32;20099;-64
2023/01/31 20:07:00;;;;;;;21.92;10.32;;;6.50;99.90;;;;;;7344935;32;20699;-63
2023/01/31 20:11:03;;;;;;;23.27;11.35;;;6.50;99.90;;;;;;7337132;32;20511;-64
2023/01/31 20:15:06;;;;;;;22.60;10.73;;;6.60;99.90;;;;;;7341523;32;20225;-61
2023/01/31 20:19:07;;;;;;;20.67;9.50;;;6.50;99.90;;;;;;7338932;32;20497;-63
2023/01/31 20:23:10;;;;;;;19.17;8.98;;;6.40;99.90;;;;;;7341402;32;20157;-64
2023/01/31 20:27:12;;;;;;;14.73;7.28;;;6.30;99.90;;;;;;7341721;32;20169;-63
2023/01/31 20:31:15;;;;;;;15.85;7.10;;;6.20;99.90;;;;;;7338744;32;20287;-62
2023/01/31 20:35:17;;;;;;;18.17;6.65;;;6.10;99.90;;;;;;7344111;32;20119;-63
2023/01/31 20:39:19;;;;;;;20.62;7.03;;;6.00;99.90;;;;;;7340630;32;20182;-65
2023/01/31 20:43:23;;;;;;;13.82;6.65;;;5.90;99.90;;;;;;7338894;32;20117;-60
2023/01/31 20:47:25;;;;;;;16.10;5.80;;;5.70;99.90;;;;;;7333087;32;20103;-62
2023/01/31 20:51:27;;;;;;;18.02;5.70;;;5.60;99.90;;;;;;7342651;32;20096;-61
2023/01/31 20:55:29;;;;;;;13.88;6.10;;;5.40;99.90;;;;;;7345537;32;20115;-63
2023/01/31 20:59:31;;;;;;;25.85;8.15;;;5.30;99.90;;;;;;7342321;32;20300;-61
2023/01/31 21:03:34;;;;;;;20.45;6.82;;;5.20;99.90;;;;;;7332754;32;20143;-61
2023/01/31 21:07:36;;;;;;;18.12;5.05;;;5.20;99.90;;;;;;7343358;32;20247;-61
2023/01/31 21:11:37;;;;;;;19.37;5.15;;;5.20;99.90;;;;;;7347022;32;20301;-62
2023/01/31 21:15:44;;;;;;;14.43;5.35;;;5.00;99.90;;;;;;7347227;32;20198;-65
2023/01/31 21:19:46;;;;;;;18.45;5.80;;;5.00;99.90;;;;;;7324585;32;20103;-61
2023/01/31 21:23:51;;;;;;;18.42;6.28;;;5.00;99.90;;;;;;7343709;32;20764;-63
2023/01/31 21:27:52;;;;;;;15.52;6.78;;;5.00;99.90;;;;;;7322303;32;20120;-61